Aroma, Missouri
Current Conditions -  °F | °C
As of 7:15 AM on Thursday 30 Oct 2014 (Local Time) from KHFJ Reporting Station
Clear Clear  
Wind Chill:   Ceiling: Unl
Heat Index:   Visibility: 10mi
Dew Point:   Wind: 8mph
Humidity: 66%   Direction: 190°S
Pressure: 30.09"   Gusts: NA
Location:  36.8998°N, 94.263°W
Report Text: KHFJ 301215Z AUTO 19007KT 10SM CLR 09/03 A3009 RMK AO2
Loading
Personal Weather Stations






























Interactive Weather Map
Tropical Storm Tracking
New forecast layout! Learn more

10-Day Weather Forecast

Advertisements
Track Severe Weather on mobile